createdAt,value
2019-01-20T00:01:15.330Z,100734.70
2019-01-20T00:03:44.708Z,100738.74
2019-01-20T00:06:14.076Z,100734.97
2019-01-20T00:08:43.573Z,100737.80
2019-01-20T00:11:16.735Z,100739.74
2019-01-20T00:13:44.081Z,100744.89
2019-01-20T00:16:13.485Z,100748.03
2019-01-20T00:18:42.878Z,100750.88
2019-01-20T00:21:12.502Z,100752.84
2019-01-20T00:23:41.954Z,100748.09
2019-01-20T00:26:11.315Z,100754.45
2019-01-20T00:28:40.753Z,100753.59
2019-01-20T00:31:10.168Z,100755.19
2019-01-20T00:33:39.562Z,100756.53
2019-01-20T00:36:09.060Z,100758.88
2019-01-20T00:38:38.433Z,100758.51
2019-01-20T00:41:07.804Z,100756.83
2019-01-20T00:43:37.230Z,100765.38
2019-01-20T00:46:06.694Z,100769.03
2019-01-20T00:48:36.048Z,100765.48
2019-01-20T00:51:05.666Z,100767.83
2019-01-20T00:53:35.032Z,100765.88
2019-01-20T00:56:04.698Z,100766.14
2019-01-20T00:58:34.126Z,100764.45
2019-01-20T01:01:03.674Z,100765.56
2019-01-20T01:03:33.091Z,100768.51
2019-01-20T01:06:03.772Z,100771.30
2019-01-20T01:08:33.132Z,100771.19
2019-01-20T01:11:02.841Z,100769.09
2019-01-20T01:13:32.219Z,100769.62
2019-01-20T01:16:01.596Z,100774.48
2019-01-20T01:18:30.989Z,100775.48
2019-01-20T01:21:00.348Z,100773.65
2019-01-20T01:23:29.712Z,100772.79
2019-01-20T01:25:59.191Z,100778.65
2019-01-20T01:28:28.527Z,100775.71
2019-01-20T01:30:57.906Z,100775.34
2019-01-20T01:33:27.306Z,100776.68
2019-01-20T01:35:56.685Z,100782.05
2019-01-20T01:38:26.062Z,100786.09
2019-01-20T01:40:55.463Z,100785.98
2019-01-20T01:43:24.864Z,100786.57
2019-01-20T01:45:54.249Z,100786.23
2019-01-20T01:48:23.725Z,100789.27
2019-01-20T01:50:53.107Z,100793.30
2019-01-20T01:53:22.458Z,100794.63
2019-01-20T01:55:51.888Z,100786.09
2019-01-20T01:58:22.179Z,100789.16
2019-01-20T02:00:51.539Z,100789.64
2019-01-20T02:03:20.952Z,100790.02
2019-01-20T02:05:50.379Z,100793.52
2019-01-20T02:08:19.719Z,100795.24
2019-01-20T02:10:49.103Z,100788.04
2019-01-20T02:13:18.463Z,100791.59
2019-01-20T02:15:47.861Z,100793.27
2019-01-20T02:18:17.212Z,100793.64
2019-01-20T02:20:46.569Z,100790.81
2019-01-20T02:23:16.050Z,100791.56
2019-01-20T02:25:45.400Z,100788.88
2019-01-20T02:28:14.756Z,100791.91
2019-01-20T02:30:44.117Z,100789.94
2019-01-20T02:33:13.524Z,100793.37
2019-01-20T02:35:42.934Z,100798.12
2019-01-20T02:38:12.297Z,100793.95
2019-01-20T02:40:41.654Z,100793.35
2019-01-20T02:43:11.044Z,100796.75
2019-01-20T02:45:40.476Z,100803.33
2019-01-20T02:48:09.825Z,100792.47
2019-01-20T02:50:39.265Z,100798.08
2019-01-20T02:53:08.810Z,100798.42
2019-01-20T02:55:38.256Z,100802.72
2019-01-20T02:58:07.922Z,100804.44
2019-01-20T03:00:38.194Z,100802.46
2019-01-20T03:03:07.535Z,100809.19
2019-01-20T03:05:36.935Z,100805.15
2019-01-20T03:08:06.394Z,100808.70
2019-01-20T03:10:35.795Z,100823.01
2019-01-20T03:13:05.367Z,100822.86
2019-01-20T03:15:34.824Z,100823.23
2019-01-20T03:18:04.299Z,100817.23
2019-01-20T03:20:33.728Z,100823.81
2019-01-20T03:23:03.120Z,100825.53
2019-01-20T03:25:32.505Z,100823.81
2019-01-20T03:28:01.961Z,100830.05
2019-01-20T03:30:31.331Z,100826.50
2019-01-20T03:33:00.723Z,100821.12
2019-01-20T03:35:30.151Z,100828.22
2019-01-20T03:37:59.519Z,100830.42
2019-01-20T03:40:28.907Z,100825.53
2019-01-20T03:42:58.308Z,100829.08
2019-01-20T03:45:27.713Z,100828.07
2019-01-20T03:47:57.104Z,100833.45
2019-01-20T03:50:26.474Z,100839.69
2019-01-20T03:52:55.848Z,100841.03
2019-01-20T03:55:25.190Z,100843.24
2019-01-20T03:57:54.612Z,100846.80
2019-01-20T04:00:25.177Z,100840.17
2019-01-20T04:03:00.146Z,100840.55
2019-01-20T04:05:29.514Z,100849.00
2019-01-20T04:07:58.935Z,100843.24
2019-01-20T04:10:28.363Z,100848.62
2019-01-20T04:12:57.684Z,100845.33
2019-01-20T04:15:27.128Z,100849.59
2019-01-20T04:17:56.578Z,100857.17
2019-01-20T04:20:25.925Z,100849.59
2019-01-20T04:22:55.284Z,100854.63
2019-01-20T04:25:24.679Z,100854.48
2019-01-20T04:27:54.047Z,100854.97
2019-01-20T04:30:23.416Z,100851.45
2019-01-20T04:32:52.819Z,100851.94
2019-01-20T04:35:22.220Z,100855.60
2019-01-20T04:37:51.561Z,100851.22
2019-01-20T04:40:22.843Z,100855.26
2019-01-20T04:42:52.170Z,100854.73
2019-01-20T04:45:21.606Z,100853.39
2019-01-20T04:47:50.989Z,100857.80
2019-01-20T04:50:22.372Z,100860.13
2019-01-20T04:52:52.206Z,100860.98
2019-01-20T04:55:21.669Z,100856.95
2019-01-20T04:57:52.890Z,100864.05
2019-01-20T05:00:27.241Z,100861.70
2019-01-20T05:02:56.701Z,100855.83
2019-01-20T05:05:26.129Z,100859.87
2019-01-20T05:07:55.552Z,100864.28
2019-01-20T05:10:25.043Z,100870.14
2019-01-20T05:12:54.435Z,100869.17
2019-01-20T05:15:25.332Z,100871.48
2019-01-20T05:17:54.702Z,100872.45
2019-01-20T05:20:24.288Z,100880.30
2019-01-20T05:22:53.698Z,100886.30
2019-01-20T05:25:23.084Z,100878.00
2019-01-20T05:27:52.437Z,100879.00
2019-01-20T05:30:24.080Z,100877.77
2019-01-20T05:32:53.465Z,100875.33
2019-01-20T05:35:23.020Z,100878.61
2019-01-20T05:37:52.476Z,100880.44
2019-01-20T05:40:22.236Z,100878.38
2019-01-20T05:42:51.638Z,100887.94
2019-01-20T05:45:23.135Z,100887.70
2019-01-20T05:47:52.482Z,100885.27
2019-01-20T05:50:21.838Z,100884.54
2019-01-20T05:52:51.236Z,100880.76
2019-01-20T05:55:20.690Z,100883.55
2019-01-20T05:57:50.026Z,100888.21
2019-01-20T06:00:25.125Z,100890.04
2019-01-20T06:02:54.481Z,100895.08
2019-01-20T06:05:24.807Z,100892.98
2019-01-20T06:07:54.290Z,100892.14
2019-01-20T06:10:23.661Z,100895.32
2019-01-20T06:12:54.124Z,100898.98
2019-01-20T06:15:25.131Z,100900.80
2019-01-20T06:17:54.523Z,100898.98
2019-01-20T06:20:23.967Z,100901.18
2019-01-20T06:22:53.336Z,100899.84
2019-01-20T06:25:22.759Z,100901.32
2019-01-20T06:27:52.109Z,100903.49
2019-01-20T06:30:40.552Z,100910.59
2019-01-20T06:33:09.982Z,100911.45
2019-01-20T06:35:39.539Z,100903.88
2019-01-20T06:38:08.961Z,100909.25
2019-01-20T06:40:38.392Z,100905.70
2019-01-20T06:43:07.821Z,100907.05
2019-01-20T06:45:37.166Z,100910.97
2019-01-20T06:48:06.499Z,100915.83
2019-01-20T06:50:35.914Z,100914.48
2019-01-20T06:53:05.251Z,100919.52
2019-01-20T06:55:34.702Z,100926.72
2019-01-20T06:58:04.301Z,100927.58
2019-01-20T07:00:33.658Z,100925.37
2019-01-20T07:03:03.066Z,100924.89
2019-01-20T07:05:32.460Z,100922.69
2019-01-20T07:08:01.925Z,100930.75
2019-01-20T07:10:32.349Z,100934.78
2019-01-20T07:13:08.866Z,100933.92
2019-01-20T07:15:32.904Z,100946.88
2019-01-20T07:18:02.278Z,100942.84
2019-01-20T07:20:31.700Z,100950.91
2019-01-20T07:23:01.101Z,100949.95
2019-01-20T07:25:30.445Z,100945.05
2019-01-20T07:27:59.922Z,100949.95
2019-01-20T07:30:29.311Z,100956.05
2019-01-20T07:32:58.664Z,100949.19
2019-01-20T07:35:28.103Z,100960.18
2019-01-20T07:37:57.465Z,100958.21
2019-01-20T07:40:26.816Z,100964.45
2019-01-20T07:42:56.412Z,100971.55
2019-01-20T07:45:25.766Z,100976.44
2019-01-20T07:47:55.239Z,100976.44
2019-01-20T07:50:26.704Z,100975.97
2019-01-20T07:52:56.097Z,100979.00
2019-01-20T07:55:25.517Z,100982.17
2019-01-20T07:57:54.958Z,100980.48
2019-01-20T08:00:25.831Z,100986.20
2019-01-20T08:02:55.269Z,100986.95
2019-01-20T08:05:24.804Z,100995.02
2019-01-20T08:07:54.188Z,100988.64
2019-01-20T08:10:26.005Z,100991.34
2019-01-20T08:12:55.588Z,100995.75
2019-01-20T08:15:25.188Z,100998.30
2019-01-20T08:17:54.656Z,101004.40
2019-01-20T08:20:24.811Z,101007.95
2019-01-20T08:22:54.183Z,101009.19
2019-01-20T08:25:23.710Z,101014.42
2019-01-20T08:27:53.318Z,101014.91
2019-01-20T08:30:24.715Z,101019.32
2019-01-20T08:32:54.171Z,101022.02
2019-01-20T08:35:23.618Z,101022.77
2019-01-20T08:37:52.964Z,101036.21
2019-01-20T08:40:24.584Z,101030.42
2019-01-20T08:42:54.006Z,101033.04
2019-01-20T08:45:37.692Z,101040.63
2019-01-20T08:48:12.661Z,101038.28
2019-01-20T08:50:42.095Z,101044.18
2019-01-20T08:53:11.470Z,101047.83
2019-01-20T08:55:40.953Z,101051.38
2019-01-20T08:58:10.279Z,101050.04
2019-01-20T09:00:40.704Z,101053.59
2019-01-20T09:03:10.187Z,101060.80
2019-01-20T09:05:39.729Z,101054.55
2019-01-20T09:08:09.160Z,101049.66
2019-01-20T09:10:38.638Z,101055.42
2019-01-20T09:13:09.774Z,101066.66
2019-01-20T09:15:39.220Z,101063.97
2019-01-20T09:18:08.897Z,101060.80
2019-01-20T09:20:38.816Z,101065.70
2019-01-20T09:23:08.189Z,101067.87
2019-01-20T09:25:37.587Z,101071.91
2019-01-20T09:28:07.104Z,101068.87
2019-01-20T09:30:38.075Z,101073.87
2019-01-20T09:33:07.644Z,101076.55
2019-01-20T09:35:37.068Z,101077.49
2019-01-20T09:38:06.723Z,101082.52
2019-01-20T09:40:36.096Z,101089.25
2019-01-20T09:43:05.713Z,101086.08
2019-01-20T09:45:35.683Z,101087.91
2019-01-20T09:48:05.700Z,101090.11
2019-01-20T09:50:35.162Z,101091.94
2019-01-20T09:53:04.712Z,101095.97
2019-01-20T09:55:34.261Z,101096.83
2019-01-20T09:58:03.619Z,101097.80
2019-01-20T10:00:33.512Z,101100.97
2019-01-20T10:03:02.989Z,101094.25
2019-01-20T10:05:32.374Z,101098.28
2019-01-20T10:08:01.818Z,101104.05
2019-01-20T10:10:31.351Z,101100.48
2019-01-20T10:13:00.760Z,101102.80
2019-01-20T10:15:30.193Z,101102.80
2019-01-20T10:17:59.603Z,101102.31
2019-01-20T10:20:30.759Z,101109.04
2019-01-20T10:23:00.564Z,101101.45
2019-01-20T10:25:29.996Z,101102.80
2019-01-20T10:27:59.563Z,101104.66
2019-01-20T10:30:31.328Z,101104.14
2019-01-20T10:33:00.970Z,101105.48
2019-01-20T10:35:35.628Z,101111.38
2019-01-20T10:38:06.778Z,101107.83
2019-01-20T10:40:36.319Z,101104.66
2019-01-20T10:43:06.560Z,101104.90
2019-01-20T10:45:35.969Z,101108.83
2019-01-20T10:48:05.762Z,101105.66
2019-01-20T10:50:35.165Z,101098.94
2019-01-20T10:53:04.610Z,101102.83
2019-01-20T10:55:34.256Z,101105.52
2019-01-20T10:58:03.665Z,101102.83
2019-01-20T11:00:36.379Z,101098.80
2019-01-20T11:03:06.252Z,101096.87
2019-01-20T11:05:35.689Z,101102.73
2019-01-20T11:08:05.396Z,101100.04
2019-01-20T11:10:35.096Z,101099.55
2019-01-20T11:13:04.880Z,101105.42
2019-01-20T11:15:34.333Z,101100.91
2019-01-20T11:18:03.947Z,101100.91
2019-01-20T11:20:33.392Z,101098.31
2019-01-20T11:23:02.976Z,101106.87
2019-01-20T11:25:35.088Z,101109.55
2019-01-20T11:28:04.737Z,101101.14
2019-01-20T11:30:34.326Z,101102.83
2019-01-20T11:33:03.906Z,101105.52
2019-01-20T11:35:33.314Z,101107.97
2019-01-20T11:38:03.883Z,101103.83
2019-01-20T11:40:33.296Z,101105.42
2019-01-20T11:43:02.682Z,101104.66
2019-01-20T11:45:32.897Z,101109.94
2019-01-20T11:48:02.437Z,101110.42
2019-01-20T11:50:31.913Z,101105.04
2019-01-20T11:53:01.496Z,101117.01
2019-01-20T11:55:30.938Z,101115.18
2019-01-20T11:58:00.352Z,101118.25
2019-01-20T12:00:35.319Z,101122.52
2019-01-20T12:03:05.385Z,101124.73
2019-01-20T12:05:36.329Z,101119.22
2019-01-20T12:08:06.264Z,101124.97
2019-01-20T12:10:35.766Z,101121.42
2019-01-20T12:13:07.526Z,101126.66
2019-01-20T12:15:37.310Z,101127.18
2019-01-20T12:18:06.785Z,101126.66
2019-01-20T12:20:36.430Z,101124.84
2019-01-20T12:23:06.392Z,101124.84
2019-01-20T12:25:36.061Z,101125.22
2019-01-20T12:28:05.590Z,101127.53
2019-01-20T12:30:36.826Z,101128.77
2019-01-20T12:33:06.817Z,101132.28
2019-01-20T12:35:36.357Z,101136.32
2019-01-20T12:38:06.079Z,101138.53
2019-01-20T12:40:38.518Z,101139.02
2019-01-20T12:43:08.086Z,101134.98
2019-01-20T12:45:37.554Z,101136.32
2019-01-20T12:48:07.367Z,101139.39
2019-01-20T12:50:36.760Z,101138.05
2019-01-20T12:53:06.253Z,101141.11
2019-01-20T12:55:35.878Z,101135.73
2019-01-20T12:58:05.726Z,101138.29
2019-01-20T13:00:35.198Z,101141.84
2019-01-20T13:03:05.189Z,101139.63
2019-01-20T13:05:34.526Z,101136.45
2019-01-20T13:08:04.038Z,101144.88
2019-01-20T13:10:33.752Z,101132.77
2019-01-20T13:13:03.157Z,101139.88
2019-01-20T13:15:32.619Z,101138.67
2019-01-20T13:18:02.008Z,101131.94
2019-01-20T13:20:31.397Z,101135.35
2019-01-20T13:23:00.882Z,101135.97
2019-01-20T13:25:31.599Z,101135.12
2019-01-20T13:28:01.296Z,101138.29
2019-01-20T13:30:30.983Z,101141.36
2019-01-20T13:33:00.493Z,101141.46
2019-01-20T13:35:30.389Z,101143.29
2019-01-20T13:38:06.109Z,101146.50
2019-01-20T13:40:41.659Z,101148.33
2019-01-20T13:43:11.071Z,101149.67
2019-01-20T13:45:40.475Z,101151.50
2019-01-20T13:48:11.472Z,101152.36
2019-01-20T13:50:41.101Z,101154.05
2019-01-20T13:53:10.516Z,101162.98
2019-01-20T13:55:39.990Z,101164.81
2019-01-20T13:58:09.431Z,101158.61
2019-01-20T14:00:38.933Z,101160.05
2019-01-20T14:03:08.564Z,101156.50
2019-01-20T14:05:37.936Z,101165.92
2019-01-20T14:08:07.566Z,101159.19
2019-01-20T14:10:37.026Z,101165.44
2019-01-20T14:13:06.492Z,101164.58
2019-01-20T14:15:35.906Z,101159.19
2019-01-20T14:18:05.488Z,101162.40
2019-01-20T14:20:34.919Z,101166.78
2019-01-20T14:23:04.441Z,101166.44
2019-01-20T14:25:33.997Z,101168.61
2019-01-20T14:28:03.445Z,101170.47
2019-01-20T14:30:32.977Z,101166.53
2019-01-20T14:33:02.488Z,101165.67
2019-01-20T14:35:31.913Z,101167.53
2019-01-20T14:38:01.338Z,101173.88
2019-01-20T14:40:30.761Z,101172.16
2019-01-20T14:43:00.153Z,101177.54
2019-01-20T14:45:29.765Z,101178.54
2019-01-20T14:47:59.216Z,101178.54
2019-01-20T14:50:29.102Z,101180.36
2019-01-20T14:52:58.519Z,101187.57
2019-01-20T14:55:27.933Z,101184.88
2019-01-20T14:57:57.364Z,101185.02
2019-01-20T15:00:32.425Z,101188.19
2019-01-20T15:03:01.858Z,101191.84
2019-01-20T15:05:31.445Z,101193.19
2019-01-20T15:08:01.048Z,101196.88
2019-01-20T15:10:30.822Z,101192.95
2019-01-20T15:13:00.227Z,101203.23
2019-01-20T15:15:32.301Z,101201.39
2019-01-20T15:18:01.683Z,101202.26
2019-01-20T15:20:31.154Z,101203.61
2019-01-20T15:23:00.562Z,101200.91
2019-01-20T15:25:29.960Z,101199.57
2019-01-20T15:27:59.337Z,101199.44
2019-01-20T15:30:30.268Z,101199.20
2019-01-20T15:33:00.969Z,101200.17
2019-01-20T15:35:30.351Z,101195.17
2019-01-20T15:37:59.807Z,101200.31
2019-01-20T15:40:29.622Z,101201.03
2019-01-20T15:42:59.014Z,101195.75
2019-01-20T15:45:28.446Z,101191.72
2019-01-20T15:47:57.840Z,101196.62
2019-01-20T15:50:29.401Z,101197.62
2019-01-20T15:52:58.962Z,101197.96
2019-01-20T15:55:28.376Z,101199.06
2019-01-20T15:57:57.980Z,101202.37
2019-01-20T16:00:29.464Z,101200.40
2019-01-20T16:02:59.416Z,101197.12
2019-01-20T16:05:29.612Z,101198.08
2019-01-20T16:07:59.215Z,101197.35
2019-01-20T16:10:28.610Z,101205.29
2019-01-20T16:12:58.007Z,101204.46
2019-01-20T16:15:38.064Z,101202.73
2019-01-20T16:18:07.635Z,101212.53
2019-01-20T16:20:37.008Z,101204.46
2019-01-20T16:23:08.217Z,101211.53
2019-01-20T16:25:38.623Z,101211.91
2019-01-20T16:28:09.748Z,101210.08
2019-01-20T16:30:40.908Z,101214.60
2019-01-20T16:33:10.627Z,101206.05
2019-01-20T16:35:40.019Z,101201.16
2019-01-20T16:38:11.068Z,101209.56
2019-01-20T16:40:40.678Z,101208.98
2019-01-20T16:43:10.038Z,101211.16
2019-01-20T16:45:44.269Z,101212.64
2019-01-20T16:48:13.935Z,101214.84
2019-01-20T16:50:43.308Z,101214.84
2019-01-20T16:53:12.798Z,101211.43
2019-01-20T16:55:42.234Z,101218.98
2019-01-20T16:58:11.830Z,101221.67
2019-01-20T17:00:43.484Z,101218.98
2019-01-20T17:03:13.018Z,101225.71
2019-01-20T17:05:42.387Z,101219.98
2019-01-20T17:08:12.131Z,101219.50
2019-01-20T17:10:43.002Z,101224.36
2019-01-20T17:13:12.960Z,101225.36
2019-01-20T17:15:46.471Z,101218.50
2019-01-20T17:18:16.869Z,101229.27
2019-01-20T17:20:46.582Z,101225.71
2019-01-20T17:23:16.420Z,101220.23
2019-01-20T17:25:46.001Z,101227.81
2019-01-20T17:28:15.405Z,101225.12
2019-01-20T17:30:45.106Z,101220.58
2019-01-20T17:33:15.272Z,101216.06
2019-01-20T17:35:44.710Z,101213.37
2019-01-20T17:38:14.181Z,101209.71
2019-01-20T17:40:43.589Z,101212.41
2019-01-20T17:43:13.038Z,101214.95
2019-01-20T17:45:48.533Z,101211.30
2019-01-20T17:48:15.478Z,101213.86
2019-01-20T17:50:45.792Z,101215.10
2019-01-20T17:53:15.536Z,101211.92
2019-01-20T17:55:44.957Z,101213.14
2019-01-20T17:58:14.354Z,101212.28
2019-01-20T18:00:49.526Z,101210.93
2019-01-20T18:03:19.039Z,101213.14
2019-01-20T18:05:48.621Z,101213.14
2019-01-20T18:08:18.131Z,101211.80
2019-01-20T18:10:47.545Z,101216.69
2019-01-20T18:13:16.951Z,101223.41
2019-01-20T18:15:46.373Z,101216.69
2019-01-20T18:18:15.883Z,101214.34
2019-01-20T18:20:45.446Z,101207.63
2019-01-20T18:23:14.865Z,101221.45
2019-01-20T18:25:44.343Z,101221.84
2019-01-20T18:28:13.803Z,101216.45
2019-01-20T18:30:43.260Z,101219.97
2019-01-20T18:33:12.679Z,101215.94
2019-01-20T18:35:42.244Z,101218.62
2019-01-20T18:38:11.768Z,101219.48
2019-01-20T18:40:41.167Z,101217.28
2019-01-20T18:43:10.640Z,101224.88
2019-01-20T18:45:40.053Z,101228.05
2019-01-20T18:48:09.448Z,101226.70
2019-01-20T18:50:39.420Z,101224.52
2019-01-20T18:53:08.818Z,101224.88
2019-01-20T18:55:38.574Z,101233.94
2019-01-20T18:58:08.430Z,101228.05
2019-01-20T19:00:46.805Z,101228.18
2019-01-20T19:03:16.274Z,101229.53
2019-01-20T19:05:45.708Z,101229.53
2019-01-20T19:08:15.082Z,101226.45
2019-01-20T19:10:44.506Z,101228.66
2019-01-20T19:13:13.904Z,101224.63
2019-01-20T19:15:43.385Z,101221.59
2019-01-20T19:18:18.915Z,101218.38
2019-01-20T19:20:43.979Z,101221.94
2019-01-20T19:23:13.437Z,101220.35
2019-01-20T19:25:42.849Z,101224.02
2019-01-20T19:28:12.264Z,101218.02
2019-01-20T19:30:41.679Z,101224.38
2019-01-20T19:33:11.220Z,101220.09
2019-01-20T19:35:40.610Z,101222.05
2019-01-20T19:38:10.045Z,101219.22
2019-01-20T19:40:39.499Z,101224.02
2019-01-20T19:43:08.907Z,101227.80
2019-01-20T19:45:38.514Z,101228.42
2019-01-20T19:48:15.675Z,101229.77
2019-01-20T19:50:39.234Z,101232.70
2019-01-20T19:53:08.629Z,101234.30
2019-01-20T19:55:38.295Z,101230.75
2019-01-20T19:58:07.795Z,101232.09
2019-01-20T20:00:37.296Z,101227.81
2019-01-20T20:03:06.744Z,101225.98
2019-01-20T20:05:36.163Z,101234.92
2019-01-20T20:08:06.063Z,101233.34
2019-01-20T20:10:35.601Z,101232.95
2019-01-20T20:13:05.081Z,101234.06
2019-01-20T20:15:34.539Z,101231.98
2019-01-20T20:18:04.069Z,101238.33
2019-01-20T20:20:33.479Z,101233.67
2019-01-20T20:23:03.121Z,101234.53
2019-01-20T20:25:32.653Z,101236.60
2019-01-20T20:28:05.182Z,101238.91
2019-01-20T20:30:36.832Z,101233.53
2019-01-20T20:33:07.296Z,101234.52
2019-01-20T20:35:36.940Z,101236.45
2019-01-20T20:38:06.540Z,101240.25
2019-01-20T20:40:35.951Z,101235.86
2019-01-20T20:43:05.396Z,101233.41
2019-01-20T20:45:34.799Z,101240.63
2019-01-20T20:48:04.335Z,101240.49
2019-01-20T20:50:33.773Z,101245.63
2019-01-20T20:53:03.279Z,101241.34
2019-01-20T20:55:32.709Z,101244.52
2019-01-20T20:58:02.197Z,101247.44
2019-01-20T21:00:52.355Z,101250.86
2019-01-20T21:03:28.341Z,101243.64
2019-01-20T21:05:57.743Z,101249.52
2019-01-20T21:08:27.304Z,101252.97
2019-01-20T21:10:56.863Z,101256.40
2019-01-20T21:13:26.242Z,101248.08
2019-01-20T21:15:55.653Z,101255.44
2019-01-20T21:18:25.073Z,101251.51
2019-01-20T21:20:54.489Z,101255.31
2019-01-20T21:23:23.882Z,101254.23
2019-01-20T21:25:54.334Z,101252.28
2019-01-20T21:28:23.728Z,101250.31
2019-01-20T21:30:53.245Z,101247.63
2019-01-20T21:33:22.683Z,101251.80
2019-01-20T21:35:52.121Z,101257.66
2019-01-20T21:38:21.587Z,101256.89
2019-01-20T21:40:51.129Z,101257.51
2019-01-20T21:43:20.646Z,101251.50
2019-01-20T21:45:50.160Z,101256.78
2019-01-20T21:48:19.633Z,101256.53
2019-01-20T21:50:49.062Z,101253.45
2019-01-20T21:53:18.553Z,101254.32
2019-01-20T21:55:47.961Z,101256.02
2019-01-20T21:58:18.302Z,101265.82
2019-01-20T22:00:47.697Z,101259.57
2019-01-20T22:03:17.096Z,101258.84
2019-01-20T22:05:46.495Z,101256.64
2019-01-20T22:08:15.922Z,101256.40
2019-01-20T22:10:45.302Z,101254.81
2019-01-20T22:13:14.847Z,101255.55
2019-01-20T22:15:44.236Z,101254.48
2019-01-20T22:18:13.619Z,101250.79
2019-01-20T22:20:43.133Z,101246.52
2019-01-20T22:23:12.552Z,101254.59
2019-01-20T22:25:42.017Z,101254.97
2019-01-20T22:28:11.691Z,101257.91
2019-01-20T22:30:41.352Z,101255.45
2019-01-20T22:33:10.727Z,101258.38
2019-01-20T22:35:40.164Z,101257.27
2019-01-20T22:38:09.537Z,101259.83
2019-01-20T22:40:38.956Z,101263.77
2019-01-20T22:43:08.414Z,101258.38
2019-01-20T22:45:37.783Z,101257.37
2019-01-20T22:48:07.992Z,101264.48
2019-01-20T22:50:37.410Z,101262.65
2019-01-20T22:53:06.842Z,101264.34
2019-01-20T22:55:36.214Z,101262.02
2019-01-20T22:58:05.754Z,101264.23
2019-01-20T23:00:49.981Z,101269.14
2019-01-20T23:03:19.727Z,101266.45
2019-01-20T23:05:51.510Z,101268.14
2019-01-20T23:08:21.084Z,101265.09
2019-01-20T23:10:50.499Z,101264.61
2019-01-20T23:13:19.913Z,101268.77
2019-01-20T23:15:49.321Z,101272.94
2019-01-20T23:18:18.727Z,101267.55
2019-01-20T23:20:48.089Z,101263.75
2019-01-20T23:23:17.475Z,101264.85
2019-01-20T23:25:46.977Z,101262.02
2019-01-20T23:28:16.406Z,101260.53
2019-01-20T23:30:45.780Z,101261.88
2019-01-20T23:33:15.199Z,101257.83
2019-01-20T23:35:44.574Z,101254.31
2019-01-20T23:38:13.953Z,101259.56
2019-01-20T23:40:43.388Z,101253.80
2019-01-20T23:43:12.759Z,101262.73
2019-01-20T23:45:42.176Z,101262.25
2019-01-20T23:48:11.576Z,101260.91
2019-01-20T23:50:40.925Z,101263.12
2019-01-20T23:53:10.379Z,101252.34
2019-01-20T23:55:39.754Z,101253.55
2019-01-20T23:58:09.113Z,101253.06
